Aérodrome :
LOGIN :

S'inscrire | Disclaimer

   EN    FR    IT 

 










Légende :    VFR   VFR Marginal   IFR   IFR Intensif   IFR Très Intensif
Visi : 
Plafond : 
>= 8 km
>= 3000ft
5 à 8 km
1000 à 3000 ft
1500m à 5 km
500 à 1000 ft
800 à 1500m
200 à 500 ft
< 800m
< 200 ft
Symboles :   Orages  Brouillard  Fortes neiges  Fortes précipitations  Vent > 20 kt
SIGMETs :   Divers  Orages  Givrage  Turbulence  Onde Orograph.  Cendres Volcan.






- Altitude de l'aérodrome : 1682 ft
- Code IATA : VIT


LEVT - Vitoria Gasteiz

DERNIER METAR :
  • 071330Z 25003KT 210V290 CAVOK 13/06 Q1023

METARs EXPIRÉS :
  • 071300Z 20001KT CAVOK 12/07 Q1023
  • 071230Z VRB02KT CAVOK 11/07 Q1024
  • 071200Z 35001KT 9999 SCT001 09/06 Q1024
  • 071130Z VRB01KT 8000 SCT001 08/07 Q1024
  • 071100Z VRB02KT 8000 SCT001 06/06 Q1025

TAF TAF LEVT
Valide du 07 à 12h jusqu'au 08 à 12h UTC


071100Z 0712/0812 VRB05KT 9999 FEW040 TX12/0714Z TN01/0802Z
TEMPO 0718/0812 22010KT
PROB30
TEMPO 0718/0810 3000 BR



MET'MAP, la Météo Aéronautique d'un coup d'oeil ! - Copyright ORBIFLY Décembre 2007 - Disclaimer

ORBIFLY MET'MAP TEAM :

Programmation & Développement : Alexandra Zaïnal
Sur une idée originale de : Baudouin d'Aumeries
Assistance à la programmation : Marc-Olivier Méhu
Soutien technique & logistique : Manuel Goepfert

Contact : metmap@orbifly.com




SOURCES & CREDITS :

   NOAA